createdAt,value
2023-03-22T00:00:29.225Z,100184.31
2023-03-22T00:02:58.179Z,100186.20
2023-03-22T00:05:26.539Z,100185.69
2023-03-22T00:08:14.638Z,100184.30
2023-03-22T00:10:44.285Z,100179.83
2023-03-22T00:13:12.998Z,100178.12
2023-03-22T00:15:44.825Z,100179.31
2023-03-22T00:18:21.766Z,100183.61
2023-03-22T00:20:50.843Z,100182.08
2023-03-22T00:23:19.014Z,100183.10
2023-03-22T00:25:47.848Z,100184.98
2023-03-22T00:28:16.579Z,100187.21
2023-03-22T00:30:55.875Z,100188.40
2023-03-22T00:33:25.701Z,100187.38
2023-03-22T00:35:55.028Z,100187.38
2023-03-22T00:38:35.953Z,100188.06
2023-03-22T00:41:13.716Z,100189.63
2023-03-22T00:43:46.430Z,100187.39
2023-03-22T00:46:15.026Z,100184.67
2023-03-22T00:48:43.722Z,100183.47
2023-03-22T00:51:12.421Z,100182.10
2023-03-22T00:53:43.358Z,100179.88
2023-03-22T00:56:16.070Z,100177.83
2023-03-22T00:58:48.412Z,100178.53
2023-03-22T01:01:17.608Z,100176.46
2023-03-22T01:03:50.190Z,100174.58
2023-03-22T01:06:18.708Z,100173.39
2023-03-22T01:08:47.129Z,100170.66
2023-03-22T01:11:19.145Z,100176.85
2023-03-22T01:13:48.183Z,100174.63
2023-03-22T01:16:16.502Z,100173.42
2023-03-22T01:18:44.862Z,100177.39
2023-03-22T01:21:13.231Z,100182.72
2023-03-22T01:23:41.636Z,100185.99
2023-03-22T01:26:09.844Z,100184.95
2023-03-22T01:28:40.708Z,100188.58
2023-03-22T01:31:08.994Z,100185.84
2023-03-22T01:33:37.977Z,100186.52
2023-03-22T01:36:06.623Z,100186.86
2023-03-22T01:38:35.913Z,100188.40
2023-03-22T01:41:04.574Z,100180.65
2023-03-22T01:43:35.709Z,100184.61
2023-03-22T01:46:04.991Z,100188.05
2023-03-22T01:48:34.876Z,100188.90
2023-03-22T01:51:05.342Z,100186.67
2023-03-22T01:53:42.174Z,100187.00
2023-03-22T01:56:10.535Z,100190.60
2023-03-22T01:58:39.065Z,100192.33
2023-03-22T02:01:07.851Z,100195.22
2023-03-22T02:04:08.128Z,100194.49
2023-03-22T02:06:38.474Z,100197.58
2023-03-22T02:09:11.475Z,100203.73
2023-03-22T02:11:41.796Z,100203.17
2023-03-22T02:14:28.675Z,100200.55
2023-03-22T02:17:15.019Z,100198.65
2023-03-22T02:20:10.254Z,100197.78
2023-03-22T02:22:41.946Z,100202.77
2023-03-22T02:25:17.773Z,100203.78
2023-03-22T02:28:04.717Z,100210.12
2023-03-22T02:30:36.439Z,100213.17
2023-03-22T02:33:25.168Z,100214.54
2023-03-22T02:36:06.441Z,100210.73
2023-03-22T02:38:52.904Z,100215.52
2023-03-22T02:41:39.592Z,100214.65
2023-03-22T02:44:13.728Z,100216.69
2023-03-22T02:46:43.752Z,100218.23
2023-03-22T02:49:33.380Z,100219.42
2023-03-22T02:52:03.825Z,100223.36
2023-03-22T02:54:37.067Z,100220.94
2023-03-22T02:57:08.128Z,100218.88
2023-03-22T02:59:38.419Z,100223.65
2023-03-22T03:02:06.844Z,100222.29
2023-03-22T03:04:36.516Z,100221.08
2023-03-22T03:07:07.289Z,100222.42
2023-03-22T03:09:36.081Z,100223.59
2023-03-22T03:12:23.944Z,100223.06
2023-03-22T03:14:54.536Z,100222.71
2023-03-22T03:17:24.773Z,100219.27
2023-03-22T03:20:08.691Z,100217.52
2023-03-22T03:22:40.275Z,100215.28
2023-03-22T03:25:11.636Z,100216.98
2023-03-22T03:27:41.122Z,100215.95
2023-03-22T03:30:11.591Z,100221.08
2023-03-22T03:32:59.584Z,100220.21
2023-03-22T03:35:38.608Z,100221.89
2023-03-22T03:38:08.944Z,100217.77
2023-03-22T03:40:47.872Z,100224.28
2023-03-22T03:43:16.620Z,100227.55
2023-03-22T03:45:45.898Z,100231.67
2023-03-22T03:48:18.913Z,100230.84
2023-03-22T03:50:47.644Z,100234.63
2023-03-22T03:53:17.024Z,100233.39
2023-03-22T03:55:45.488Z,100240.90
2023-03-22T03:58:16.374Z,100240.73
2023-03-22T04:00:46.267Z,100243.64
2023-03-22T04:03:34.852Z,100242.11
2023-03-22T04:06:15.133Z,100240.79
2023-03-22T04:08:47.019Z,100240.30
2023-03-22T04:11:18.278Z,100239.16
2023-03-22T04:13:50.424Z,100242.12
2023-03-22T04:16:21.664Z,100246.29
2023-03-22T04:18:52.929Z,100248.41
2023-03-22T04:21:21.907Z,100249.85
2023-03-22T04:23:59.963Z,100258.18
2023-03-22T04:26:30.641Z,100256.01
2023-03-22T04:29:32.336Z,100260.04
2023-03-22T04:32:24.267Z,100265.59
2023-03-22T04:34:53.460Z,100265.13
2023-03-22T04:37:24.724Z,100264.89
2023-03-22T04:40:16.671Z,100268.56
2023-03-22T04:43:04.229Z,100276.66
2023-03-22T04:45:58.410Z,100280.41
2023-03-22T04:48:32.761Z,100279.59
2023-03-22T04:51:04.573Z,100279.52
2023-03-22T04:53:40.442Z,100283.27
2023-03-22T04:56:12.646Z,100282.95
2023-03-22T04:58:42.262Z,100286.20
2023-03-22T05:01:15.601Z,100284.40
2023-03-22T05:03:47.977Z,100285.98
2023-03-22T05:06:17.504Z,100287.60
2023-03-22T05:08:59.619Z,100290.09
2023-03-22T05:11:28.399Z,100294.77
2023-03-22T05:14:15.805Z,100298.79
2023-03-22T05:16:46.951Z,100301.87
2023-03-22T05:19:17.071Z,100305.89
2023-03-22T05:21:49.248Z,100306.35
2023-03-22T05:24:17.520Z,100306.02
2023-03-22T05:26:47.488Z,100306.18
2023-03-22T05:29:15.710Z,100314.25
2023-03-22T05:32:07.628Z,100314.89
2023-03-22T05:34:37.234Z,100318.48
2023-03-22T05:37:24.714Z,100319.78
2023-03-22T05:40:02.661Z,100321.96
2023-03-22T05:42:37.861Z,100321.31
2023-03-22T05:45:15.014Z,100322.95
2023-03-22T05:47:44.712Z,100326.34
2023-03-22T05:50:17.271Z,100327.41
2023-03-22T05:52:46.671Z,100329.63
2023-03-22T05:55:32.236Z,100330.50
2023-03-22T05:58:05.401Z,100336.48
2023-03-22T06:00:38.746Z,100336.86
2023-03-22T06:03:23.017Z,100340.23
2023-03-22T06:06:07.117Z,100344.48
2023-03-22T06:09:10.698Z,100342.73
2023-03-22T06:11:51.470Z,100343.28
2023-03-22T06:14:20.589Z,100349.81
2023-03-22T06:17:33.287Z,100352.50
2023-03-22T06:20:01.992Z,100351.27
2023-03-22T06:22:33.544Z,100354.31
2023-03-22T06:25:01.966Z,100354.25
2023-03-22T06:27:40.385Z,100358.91
2023-03-22T06:30:09.589Z,100356.08
2023-03-22T06:32:48.621Z,100357.86
2023-03-22T06:35:17.172Z,100358.13
2023-03-22T06:37:46.915Z,100358.24
2023-03-22T06:40:15.522Z,100358.98
2023-03-22T06:42:44.997Z,100361.48
2023-03-22T06:45:16.657Z,100365.70
2023-03-22T06:47:47.118Z,100368.27
2023-03-22T06:50:38.483Z,100369.30
2023-03-22T06:53:21.001Z,100368.77
2023-03-22T06:55:50.167Z,100369.05
2023-03-22T06:58:23.984Z,100376.08
2023-03-22T07:00:52.409Z,100374.27
2023-03-22T07:03:22.366Z,100378.86
2023-03-22T07:05:53.714Z,100379.98
2023-03-22T07:08:22.493Z,100383.67
2023-03-22T07:10:53.001Z,100386.02
2023-03-22T07:13:23.660Z,100388.59
2023-03-22T07:15:57.523Z,100388.25
2023-03-22T07:18:41.604Z,100385.09
2023-03-22T07:21:10.042Z,100383.35
2023-03-22T07:23:39.925Z,100386.54
2023-03-22T07:26:13.548Z,100386.21
2023-03-22T07:28:47.067Z,100382.96
2023-03-22T07:31:17.020Z,100383.52
2023-03-22T07:33:52.354Z,100383.48
2023-03-22T07:36:24.019Z,100383.11
2023-03-22T07:38:53.001Z,100387.23
2023-03-22T07:41:30.372Z,100391.36
2023-03-22T07:44:18.470Z,100395.50
2023-03-22T07:47:30.596Z,100396.15
2023-03-22T07:50:26.354Z,100394.92
2023-03-22T07:52:57.825Z,100395.16
2023-03-22T07:55:26.838Z,100395.98
2023-03-22T07:57:55.258Z,100392.21
2023-03-22T08:00:24.165Z,100395.23
2023-03-22T08:03:02.770Z,100392.58
2023-03-22T08:05:51.880Z,100396.61
2023-03-22T08:08:20.867Z,100392.42
2023-03-22T08:10:51.757Z,100390.95
2023-03-22T08:13:20.625Z,100390.56
2023-03-22T08:15:48.969Z,100390.65
2023-03-22T08:18:21.891Z,100393.31
2023-03-22T08:20:56.599Z,100394.60
2023-03-22T08:23:40.495Z,100394.61
2023-03-22T08:26:28.515Z,100395.52
2023-03-22T08:29:01.508Z,100399.57
2023-03-22T08:31:31.941Z,100402.56
2023-03-22T08:34:00.481Z,100398.73
2023-03-22T08:36:29.725Z,100395.28
2023-03-22T08:39:01.717Z,100395.55
2023-03-22T08:41:52.869Z,100399.80
2023-03-22T08:44:21.634Z,100394.52
2023-03-22T08:46:49.875Z,100395.13
2023-03-22T08:49:18.169Z,100395.56
2023-03-22T08:51:54.529Z,100399.36
2023-03-22T08:54:37.096Z,100395.50
2023-03-22T08:57:09.601Z,100396.66
2023-03-22T09:00:01.290Z,100396.74
2023-03-22T09:02:46.274Z,100397.73
2023-03-22T09:05:14.836Z,100395.87
2023-03-22T09:07:46.366Z,100392.61
2023-03-22T09:10:25.023Z,100393.72
2023-03-22T09:12:53.657Z,100391.36
2023-03-22T09:15:22.033Z,100390.87
2023-03-22T09:18:02.529Z,100385.99
2023-03-22T09:20:31.375Z,100382.16
2023-03-22T09:22:59.643Z,100380.48
2023-03-22T09:25:28.812Z,100379.93
2023-03-22T09:27:57.558Z,100379.10
2023-03-22T09:30:30.535Z,100373.55
2023-03-22T09:32:58.842Z,100377.09
2023-03-22T09:35:27.142Z,100380.85
2023-03-22T09:38:00.020Z,100377.63
2023-03-22T09:40:32.206Z,100369.74
2023-03-22T09:43:01.560Z,100373.19
2023-03-22T09:45:38.759Z,100370.89
2023-03-22T09:48:12.283Z,100371.32
2023-03-22T09:50:46.710Z,100370.27
2023-03-22T09:53:15.633Z,100373.09
2023-03-22T09:55:50.231Z,100375.23
2023-03-22T09:58:26.404Z,100381.09
2023-03-22T10:01:02.420Z,100375.86
2023-03-22T10:03:40.052Z,100370.98
2023-03-22T10:06:08.668Z,100367.60
2023-03-22T10:08:44.813Z,100362.18
2023-03-22T10:11:17.216Z,100361.48
2023-03-22T10:14:08.809Z,100365.53
2023-03-22T10:16:37.558Z,100363.95
2023-03-22T10:19:13.740Z,100362.14
2023-03-22T10:21:42.595Z,100364.67
2023-03-22T10:24:15.557Z,100361.23
2023-03-22T10:26:45.353Z,100358.08
2023-03-22T10:29:27.465Z,100359.71
2023-03-22T10:31:55.803Z,100355.94
2023-03-22T10:34:28.200Z,100359.02
2023-03-22T10:36:57.220Z,100357.55
2023-03-22T10:39:25.420Z,100351.88
2023-03-22T10:41:56.336Z,100348.59
2023-03-22T10:44:26.413Z,100345.50
2023-03-22T10:46:59.551Z,100341.50
2023-03-22T10:49:29.764Z,100338.15
2023-03-22T10:52:00.140Z,100336.59
2023-03-22T10:54:28.822Z,100333.48
2023-03-22T10:56:57.358Z,100332.64
2023-03-22T10:59:44.504Z,100326.30
2023-03-22T11:02:22.385Z,100327.91
2023-03-22T11:04:54.919Z,100329.04
2023-03-22T11:07:27.989Z,100318.36
2023-03-22T11:10:08.390Z,100315.02
2023-03-22T11:12:40.134Z,100317.21
2023-03-22T11:15:38.727Z,100312.33
2023-03-22T11:18:16.630Z,100311.62
2023-03-22T11:20:56.917Z,100305.20
2023-03-22T11:23:27.096Z,100302.96
2023-03-22T11:25:56.369Z,100301.45
2023-03-22T11:28:29.087Z,100299.92
2023-03-22T11:31:03.689Z,100298.38
2023-03-22T11:33:34.252Z,100299.71
2023-03-22T11:36:21.644Z,100296.90
2023-03-22T11:38:50.429Z,100293.94
2023-03-22T11:41:25.773Z,100286.73
2023-03-22T11:43:54.868Z,100294.08
2023-03-22T11:46:23.814Z,100296.42
2023-03-22T11:48:52.436Z,100294.67
2023-03-22T11:51:29.935Z,100294.42
2023-03-22T11:54:02.464Z,100295.66
2023-03-22T11:56:30.840Z,100292.19
2023-03-22T11:59:04.210Z,100289.92
2023-03-22T12:01:35.752Z,100292.16
2023-03-22T12:04:05.471Z,100291.23
2023-03-22T12:06:34.453Z,100289.23
2023-03-22T12:09:07.131Z,100287.98
2023-03-22T12:11:41.720Z,100286.23
2023-03-22T12:14:37.466Z,100287.58
2023-03-22T12:17:32.642Z,100284.08
2023-03-22T12:20:08.769Z,100284.40
2023-03-22T12:22:42.335Z,100290.70
2023-03-22T12:25:17.559Z,100282.06
2023-03-22T12:27:50.265Z,100284.79
2023-03-22T12:30:23.195Z,100280.07
2023-03-22T12:32:52.510Z,100282.63
2023-03-22T12:35:28.376Z,100278.88
2023-03-22T12:37:57.218Z,100282.71
2023-03-22T12:40:29.365Z,100276.52
2023-03-22T12:43:09.559Z,100279.50
2023-03-22T12:45:44.360Z,100278.27
2023-03-22T12:48:14.228Z,100276.72
2023-03-22T12:50:44.118Z,100277.33
2023-03-22T12:53:13.837Z,100274.63
2023-03-22T12:55:42.884Z,100277.55
2023-03-22T12:58:13.092Z,100281.71
2023-03-22T13:00:53.335Z,100279.51
2023-03-22T13:03:24.608Z,100280.08
2023-03-22T13:06:01.296Z,100281.62
2023-03-22T13:08:49.937Z,100284.26
2023-03-22T13:11:26.903Z,100281.71
2023-03-22T13:13:58.649Z,100278.39
2023-03-22T13:16:42.403Z,100276.06
2023-03-22T13:19:17.833Z,100269.10
2023-03-22T13:21:48.092Z,100267.34
2023-03-22T13:24:16.498Z,100262.84
2023-03-22T13:26:49.556Z,100262.09
2023-03-22T13:29:18.982Z,100260.78
2023-03-22T13:31:54.048Z,100262.83
2023-03-22T13:34:30.106Z,100266.29
2023-03-22T13:36:58.642Z,100265.16
2023-03-22T13:39:28.475Z,100258.41
2023-03-22T13:42:13.638Z,100259.12
2023-03-22T13:44:46.271Z,100263.27
2023-03-22T13:47:31.728Z,100261.24
2023-03-22T13:50:01.343Z,100257.73
2023-03-22T13:52:49.886Z,100260.91
2023-03-22T13:55:37.603Z,100263.86
2023-03-22T13:58:08.017Z,100265.82
2023-03-22T14:00:56.059Z,100267.52
2023-03-22T14:03:26.939Z,100270.04
2023-03-22T14:06:04.500Z,100265.29
2023-03-22T14:08:35.648Z,100262.26
2023-03-22T14:11:22.735Z,100260.79
2023-03-22T14:14:00.778Z,100258.67
2023-03-22T14:16:32.884Z,100255.33
2023-03-22T14:19:01.975Z,100255.02
2023-03-22T14:21:34.551Z,100255.70
